Time;durP1;ratioP1;P1;durP2;ratioP2;P2;SDS_P1;SDS_P2;PMS_P1;PMS_P2;Temp;Humidity;BMP_temperature;BMP_pressure;BME280_temperature;BME280_humidity;BME280_pressure;Samples;Min_cycle;Max_cycle;Signal;HPM_P1;HPM_P2
2023/06/19 00:00:13;;;;;;;9.30;6.60;;;;;;;16.44;100.00;100286.94;5566037;32;34458;-67
2023/06/19 00:03:20;;;;;;;11.32;6.50;;;;;;;16.41;100.00;100287.38;5566027;32;33594;-67
2023/06/19 00:06:27;;;;;;;8.13;6.62;;;;;;;16.46;100.00;100287.53;5565936;32;33704;-67
2023/06/19 00:09:35;;;;;;;8.18;6.37;;;;;;;16.51;100.00;100288.56;5565786;32;34103;-67
2023/06/19 00:12:40;;;;;;;7.97;6.28;;;;;;;16.56;100.00;100287.09;5565733;32;33828;-67
2023/06/19 00:15:50;;;;;;;9.07;6.03;;;;;;;16.61;100.00;100292.69;5566474;32;34618;-67
2023/06/19 00:18:58;;;;;;;7.75;6.53;;;;;;;16.63;100.00;100293.31;5568567;32;34755;-67
2023/06/19 00:22:05;;;;;;;9.90;6.35;;;;;;;16.64;100.00;100292.28;5568009;32;33891;-67
2023/06/19 00:25:11;;;;;;;8.35;6.93;;;;;;;16.64;100.00;100289.62;5567960;32;34304;-67
2023/06/19 00:28:21;;;;;;;8.07;6.32;;;;;;;16.60;100.00;100291.91;5568476;32;33608;-67
2023/06/19 00:31:29;;;;;;;9.00;6.50;;;;;;;16.57;100.00;100286.91;5568346;32;34655;-67
2023/06/19 00:34:42;;;;;;;8.88;6.32;;;;;;;16.52;100.00;100286.72;5568401;32;33929;-67
2023/06/19 00:37:49;;;;;;;10.88;6.82;;;;;;;16.45;100.00;100281.37;5567382;32;34894;-67
2023/06/19 00:40:55;;;;;;;7.78;6.57;;;;;;;16.38;100.00;100279.72;5568227;32;34015;-67
2023/06/19 00:44:02;;;;;;;8.38;6.68;;;;;;;16.32;100.00;100277.87;5568324;32;34457;-67
2023/06/19 00:47:08;;;;;;;9.52;6.90;;;;;;;16.23;100.00;100279.12;5568327;32;33780;-67
2023/06/19 00:50:17;;;;;;;11.02;7.50;;;;;;;16.15;100.00;100282.84;5568256;32;33663;-67
2023/06/19 00:53:25;;;;;;;10.95;7.53;;;;;;;16.09;100.00;100278.31;5568195;32;33522;-67
2023/06/19 00:56:34;;;;;;;8.13;6.72;;;;;;;16.05;100.00;100277.91;5568111;32;34630;-67
2023/06/19 00:59:38;;;;;;;10.70;7.40;;;;;;;16.02;100.00;100280.97;5567353;32;34363;-67
2023/06/19 01:02:47;;;;;;;10.02;7.30;;;;;;;15.99;100.00;100278.72;5568480;32;33506;-67
2023/06/19 01:05:55;;;;;;;11.02;7.18;;;;;;;15.94;100.00;100277.69;5568125;32;34131;-67
2023/06/19 01:09:07;;;;;;;10.73;7.18;;;;;;;15.89;100.00;100277.47;5568170;32;33600;-67
2023/06/19 01:12:23;;;;;;;9.82;7.28;;;;;;;15.84;100.00;100274.59;5567795;32;34736;-67
2023/06/19 01:15:35;;;;;;;7.50;6.72;;;;;;;15.81;100.00;100270.47;5568007;32;33595;-67
2023/06/19 01:18:46;;;;;;;11.12;7.57;;;;;;;15.78;100.00;100264.72;5567868;32;33988;-67
2023/06/19 01:21:52;;;;;;;9.15;7.22;;;;;;;15.76;100.00;100264.09;5567984;32;34527;-67
2023/06/19 01:24:59;;;;;;;8.55;6.95;;;;;;;15.73;100.00;100276.03;5568354;32;33450;-67
2023/06/19 01:28:10;;;;;;;7.82;6.97;;;;;;;15.73;100.00;100286.72;5567179;32;33842;-67
2023/06/19 01:31:32;;;;;;;10.00;7.22;;;;;;;15.87;100.00;100276.88;5567053;32;33817;-67
2023/06/19 01:34:41;;;;;;;9.75;7.12;;;;;;;15.80;100.00;100268.81;5566945;32;33739;-67
2023/06/19 01:37:49;;;;;;;12.50;7.10;;;;;;;15.73;100.00;100272.53;5568093;31;33778;-67
2023/06/19 01:40:56;;;;;;;10.55;7.25;;;;;;;15.64;100.00;100263.84;5567902;32;34315;-67
2023/06/19 01:44:03;;;;;;;11.15;7.47;;;;;;;15.60;100.00;100259.94;5568025;32;34243;-67
2023/06/19 01:47:14;;;;;;;11.48;7.20;;;;;;;15.55;100.00;100257.87;5567814;32;34476;-67
2023/06/19 01:50:24;;;;;;;10.32;7.12;;;;;;;15.50;100.00;100257.63;5567747;32;33899;-67
2023/06/19 01:53:31;;;;;;;9.30;6.60;;;;;;;15.45;100.00;100257.41;5566712;32;34183;-67
2023/06/19 01:56:39;;;;;;;8.52;7.30;;;;;;;15.46;100.00;100252.88;5567662;32;33658;-67
2023/06/19 01:59:46;;;;;;;11.65;6.87;;;;;;;15.42;100.00;100257.81;5566920;32;33838;-67
2023/06/19 02:02:53;;;;;;;10.93;6.97;;;;;;;15.51;100.00;100261.16;5567929;32;33812;-67
2023/06/19 02:06:02;;;;;;;7.78;6.55;;;;;;;15.45;100.00;100267.28;5567635;32;34353;-66
2023/06/19 02:09:08;;;;;;;9.40;7.10;;;;;;;15.41;100.00;100269.53;5567612;32;34489;-67
2023/06/19 02:12:16;;;;;;;9.43;7.53;;;;;;;15.38;100.00;100267.28;5567529;32;33827;-67
2023/06/19 02:15:22;;;;;;;10.60;7.18;;;;;;;15.44;100.00;100268.31;5566589;32;34755;-67
2023/06/19 02:18:28;;;;;;;8.50;7.03;;;;;;;15.68;100.00;100266.97;5567484;32;33969;-67
2023/06/19 02:21:36;;;;;;;12.00;7.35;;;;;;;15.61;100.00;100269.62;5567499;32;34470;-67
2023/06/19 02:24:44;;;;;;;9.30;7.05;;;;;;;15.68;100.00;100273.12;5567564;32;33572;-67
2023/06/19 02:27:52;;;;;;;10.38;7.22;;;;;;;15.80;100.00;100266.16;5567478;32;34239;-67
2023/06/19 02:31:02;;;;;;;12.30;7.37;;;;;;;15.79;100.00;100266.34;5567409;32;34453;-67
2023/06/19 02:34:09;;;;;;;;;;;;;;;15.72;100.00;100270.87;5567741;32;33923;-67
2023/06/19 02:37:16;;;;;;;8.90;7.20;;;;;;;15.73;100.00;100267.19;5567275;32;34375;-67
2023/06/19 02:40:24;;;;;;;9.05;7.25;;;;;;;15.70;100.00;100263.03;5567351;32;33816;-67
2023/06/19 02:43:32;;;;;;;8.32;7.15;;;;;;;15.65;100.00;100276.19;5567388;32;33776;-67
2023/06/19 02:46:43;;;;;;;8.52;7.07;;;;;;;15.48;100.00;100277.59;5566372;32;33958;-67
2023/06/19 02:49:48;;;;;;;8.27;7.35;;;;;;;15.40;100.00;100281.25;5566366;32;33682;-67
2023/06/19 02:52:55;;;;;;;8.30;7.25;;;;;;;15.33;100.00;100275.06;5567084;32;34846;-67
2023/06/19 02:56:01;;;;;;;10.80;7.45;;;;;;;15.40;100.00;100275.91;5567221;32;33760;-67
2023/06/19 02:59:08;;;;;;;9.85;7.47;;;;;;;15.43;100.00;100283.53;5567032;32;33836;-67
2023/06/19 03:02:15;;;;;;;9.98;8.20;;;;;;;15.34;100.00;100287.44;5567378;32;33510;-67
2023/06/19 03:05:22;;;;;;;9.38;8.35;;;;;;;15.41;100.00;100284.75;5566910;32;33726;-67
2023/06/19 03:08:30;;;;;;;10.88;8.23;;;;;;;15.39;100.00;100281.47;5566964;32;35107;-67
2023/06/19 03:11:42;;;;;;;9.68;7.60;;;;;;;15.39;100.00;100284.16;5566668;32;33660;-67
2023/06/19 03:14:47;;;;;;;;;;;;;;;15.46;100.00;100285.81;5567248;32;34475;-67
2023/06/19 03:17:55;;;;;;;9.07;8.05;;;;;;;15.44;100.00;100282.50;5566815;32;34140;-68
2023/06/19 03:21:01;;;;;;;11.65;8.48;;;;;;;15.42;100.00;100284.56;5566602;32;34863;-68
2023/06/19 03:24:08;;;;;;;10.68;8.27;;;;;;;15.57;100.00;100295.13;5575034;31;33843;-67
2023/06/19 03:27:17;;;;;;;10.18;8.10;;;;;;;15.57;100.00;100301.28;5586379;31;33804;-67
2023/06/19 03:30:23;;;;;;;12.30;8.18;;;;;;;15.68;100.00;100312.44;5586226;31;33829;-67
2023/06/19 03:33:30;;;;;;;12.23;8.43;;;;;;;15.74;100.00;100303.56;5586147;31;33955;-68
2023/06/19 03:36:36;;;;;;;8.63;7.72;;;;;;;15.87;100.00;100300.94;5585903;31;33673;-67
2023/06/19 03:39:44;;;;;;;9.55;7.70;;;;;;;15.98;100.00;100306.50;5586156;31;33577;-67
2023/06/19 03:42:54;;;;;;;9.25;7.30;;;;;;;16.21;100.00;100303.44;5585892;31;33776;-67
2023/06/19 03:46:00;;;;;;;14.68;8.05;;;;;;;16.29;100.00;100307.75;5585740;31;34716;-67
2023/06/19 03:49:09;;;;;;;16.67;7.65;;;;;;;16.24;100.00;100313.72;5585758;31;34528;-66
2023/06/19 03:52:15;;;;;;;13.43;7.90;;;;;;;16.24;100.00;100313.72;5587623;31;33602;-65
2023/06/19 03:55:22;;;;;;;10.05;7.40;;;;;;;16.23;100.00;100320.09;5588376;31;34782;-66
2023/06/19 03:58:28;;;;;;;10.45;7.45;;;;;;;16.22;100.00;100312.25;5588327;31;33716;-66
2023/06/19 04:01:35;;;;;;;12.95;7.60;;;;;;;16.12;100.00;100315.34;5588629;31;34197;-66
2023/06/19 04:04:41;;;;;;;8.88;7.22;;;;;;;16.08;100.00;100309.59;5588382;31;33835;-66
2023/06/19 04:07:47;;;;;;;9.07;7.15;;;;;;;16.05;100.00;100311.87;5587458;31;33464;-68
2023/06/19 04:10:53;;;;;;;10.02;7.78;;;;;;;16.05;100.00;100314.53;5588155;31;33646;-68
2023/06/19 04:13:58;;;;;;;11.90;8.25;;;;;;;16.06;100.00;100310.84;5588346;31;34110;-67
2023/06/19 04:17:08;;;;;;;10.50;7.45;;;;;;;16.06;100.00;100309.00;5587873;31;33611;-68
2023/06/19 04:20:17;;;;;;;10.65;7.80;;;;;;;16.15;100.00;100314.13;5587849;31;34753;-68
2023/06/19 04:23:26;;;;;;;12.07;7.70;;;;;;;16.26;100.00;100316.19;5588063;31;33566;-68
2023/06/19 04:26:31;;;;;;;15.13;8.15;;;;;;;16.48;100.00;100313.09;5587123;31;33719;-68
2023/06/19 04:29:37;;;;;;;9.35;7.93;;;;;;;16.58;100.00;100315.37;5587883;31;33938;-68
2023/06/19 04:32:43;;;;;;;11.00;8.25;;;;;;;16.69;100.00;100321.97;5588009;31;33834;-68
2023/06/19 04:35:51;;;;;;;32.63;8.80;;;;;;;16.76;100.00;100322.75;5587946;31;33928;-67
2023/06/19 04:39:00;;;;;;;14.48;7.87;;;;;;;16.90;100.00;100321.69;5587748;31;33862;-68
2023/06/19 04:42:06;;;;;;;14.50;7.97;;;;;;;16.91;100.00;100317.97;5587944;31;34260;-67
2023/06/19 04:45:11;;;;;;;9.57;8.00;;;;;;;17.00;100.00;100318.56;5587850;31;33608;-68
2023/06/19 04:48:18;;;;;;;14.18;7.25;;;;;;;17.16;100.00;100331.53;5587702;31;34396;-68
2023/06/19 04:51:26;;;;;;;23.83;8.43;;;;;;;17.24;100.00;100321.38;5587563;31;34610;-68
2023/06/19 04:54:36;;;;;;;10.13;7.28;;;;;;;17.41;100.00;100323.59;5587583;31;34553;-68
2023/06/19 04:57:43;;;;;;;9.85;7.35;;;;;;;17.55;100.00;100328.66;5587803;31;33950;-67
2023/06/19 05:00:51;;;;;;;9.45;7.37;;;;;;;17.44;100.00;100329.34;5587636;31;33893;-67
2023/06/19 05:03:57;;;;;;;13.15;7.45;;;;;;;17.59;100.00;100329.91;5586465;31;33770;-68
2023/06/19 05:07:02;;;;;;;10.20;7.15;;;;;;;17.63;100.00;100333.81;5587107;31;33938;-68
2023/06/19 05:10:08;;;;;;;11.50;7.22;;;;;;;17.58;100.00;100330.91;5587001;31;34351;-68
2023/06/19 05:13:13;;;;;;;9.02;6.97;;;;;;;17.74;100.00;100335.81;5585863;31;33895;-67
2023/06/19 05:16:19;;;;;;;8.90;6.28;;;;;;;18.14;100.00;100347.12;5586717;31;34924;-68
2023/06/19 05:19:26;;;;;;;9.88;6.18;;;;;;;18.21;100.00;100347.06;5587538;31;33810;-67
2023/06/19 05:22:34;;;;;;;8.27;6.37;;;;;;;18.40;100.00;100346.06;5586060;31;35021;-67
2023/06/19 05:25:39;;;;;;;13.40;6.80;;;;;;;18.23;100.00;100351.19;5586462;31;34010;-68
2023/06/19 05:28:42;;;;;;;10.32;6.90;;;;;;;17.92;100.00;100361.09;5586628;31;33828;-68
2023/06/19 05:31:46;;;;;;;9.55;6.55;;;;;;;17.77;100.00;100356.00;5583520;31;33908;-68
2023/06/19 05:34:51;;;;;;;11.45;6.80;;;;;;;17.76;100.00;100352.53;5585222;31;34668;-68
2023/06/19 05:37:57;;;;;;;10.25;6.05;;;;;;;17.76;100.00;100352.53;5586184;31;33508;-68
2023/06/19 05:41:02;;;;;;;11.90;7.50;;;;;;;18.01;100.00;100355.25;5587206;31;33962;-68
2023/06/19 05:44:07;;;;;;;12.23;6.97;;;;;;;18.36;100.00;100365.53;5586720;31;33903;-68
2023/06/19 05:47:11;;;;;;;10.30;6.50;;;;;;;18.52;100.00;100359.63;5586226;31;32946;-68
2023/06/19 05:50:15;;;;;;;8.07;6.55;;;;;;;18.61;100.00;100356.47;5578753;31;34779;-70
2023/06/19 05:53:18;;;;;;;14.20;6.78;;;;;;;18.74;100.00;100358.19;5584115;31;34524;-69
2023/06/19 05:56:21;;;;;;;21.02;7.07;;;;;;;19.08;100.00;100362.19;5586869;31;33679;-69
2023/06/19 05:59:25;;;;;;;11.18;6.37;;;;;;;19.25;100.00;100360.56;5585602;31;33792;-68
2023/06/19 06:02:30;;;;;;;9.55;6.28;;;;;;;19.44;100.00;100366.78;5586550;31;34699;-70
2023/06/19 06:05:36;;;;;;;10.73;6.65;;;;;;;19.46;100.00;100376.25;5585741;31;33676;-69
2023/06/19 06:08:40;;;;;;;16.20;6.18;;;;;;;19.67;100.00;100383.06;5586773;31;34511;-69
2023/06/19 06:11:45;;;;;;;11.00;6.12;;;;;;;19.88;100.00;100373.66;5586542;31;33915;-69
2023/06/19 06:14:50;;;;;;;13.60;6.57;;;;;;;20.01;100.00;100380.72;5586550;31;33954;-69
2023/06/19 06:17:53;;;;;;;16.58;6.45;;;;;;;20.07;100.00;100374.44;5586292;31;33856;-69
2023/06/19 06:20:58;;;;;;;12.93;6.80;;;;;;;20.11;100.00;100378.31;5586647;31;34457;-69
2023/06/19 06:24:03;;;;;;;17.73;6.60;;;;;;;20.24;100.00;100373.53;5585888;31;34171;-69
2023/06/19 06:27:07;;;;;;;12.75;7.00;;;;;;;20.34;100.00;100367.59;5586282;31;34535;-69
2023/06/19 06:30:12;;;;;;;9.25;6.75;;;;;;;20.64;100.00;100372.91;5586322;31;34324;-69
2023/06/19 06:33:17;;;;;;;11.38;7.10;;;;;;;20.86;100.00;100371.28;5584490;31;33900;-69
2023/06/19 06:36:22;;;;;;;12.10;7.00;;;;;;;20.96;98.67;100376.91;5585757;31;33852;-69
2023/06/19 06:39:38;;;;;;;10.63;5.85;;;;;;;21.09;100.00;100376.66;5584652;31;33599;-69
2023/06/19 06:42:43;;;;;;;13.18;7.32;;;;;;;21.36;95.59;100378.88;5586297;31;33545;-70
2023/06/19 06:45:46;;;;;;;15.18;7.00;;;;;;;21.48;95.90;100385.06;5579884;31;33886;-70
2023/06/19 06:48:50;;;;;;;9.00;7.40;;;;;;;21.73;94.66;100390.16;5566784;32;33737;-69
2023/06/19 06:51:55;;;;;;;10.25;6.20;;;;;;;21.73;89.62;100382.87;5570139;31;34521;-70
2023/06/19 06:55:01;;;;;;;15.02;6.53;;;;;;;21.95;88.12;100386.56;5566546;32;34569;-70
2023/06/19 06:58:05;;;;;;;11.85;6.47;;;;;;;22.15;86.41;100388.81;5567041;32;33720;-70
2023/06/19 07:01:08;;;;;;;11.27;6.62;;;;;;;22.28;82.94;100384.97;5566402;32;34933;-70
2023/06/19 07:04:11;;;;;;;13.10;6.18;;;;;;;22.23;86.77;100384.88;5566513;32;34031;-70
2023/06/19 07:07:15;;;;;;;13.62;6.97;;;;;;;22.57;83.48;100381.12;5566217;32;33844;-69
2023/06/19 07:10:20;;;;;;;8.48;6.37;;;;;;;22.92;76.39;100381.72;5565983;32;33789;-70
2023/06/19 07:13:25;;;;;;;17.17;6.93;;;;;;;22.85;77.75;100389.19;5566379;32;33670;-70
2023/06/19 07:16:29;;;;;;;9.85;6.35;;;;;;;23.17;76.61;100383.16;5554500;32;33904;-71
2023/06/19 07:19:34;;;;;;;12.55;6.62;;;;;;;23.24;75.34;100387.28;5546775;32;34431;-69
2023/06/19 07:22:38;;;;;;;12.05;6.18;;;;;;;23.46;77.22;100386.53;5546682;32;33586;-69
2023/06/19 07:25:41;;;;;;;19.10;6.68;;;;;;;23.81;70.79;100381.53;5532534;32;35009;-70
2023/06/19 07:28:45;;;;;;;13.65;6.62;;;;;;;24.28;68.64;100380.94;5559504;32;34601;-69
2023/06/19 07:31:48;;;;;;;11.98;6.15;;;;;;;24.53;65.91;100376.56;5558551;32;33803;-70
2023/06/19 07:34:53;;;;;;;7.87;6.12;;;;;;;25.02;64.23;100373.66;5565558;32;33798;-69
2023/06/19 07:37:56;;;;;;;9.70;6.15;;;;;;;24.79;64.80;100371.28;5551221;32;33925;-70
2023/06/19 07:40:59;;;;;;;8.80;5.97;;;;;;;25.55;62.68;100379.91;5546662;32;33917;-70
2023/06/19 07:44:04;;;;;;;11.20;5.87;;;;;;;26.07;58.64;100379.75;5547374;32;33912;-70
2023/06/19 07:47:08;;;;;;;10.35;5.80;;;;;;;27.27;55.63;100390.88;5547232;32;33886;-70
2023/06/19 07:50:13;;;;;;;18.20;6.00;;;;;;;27.27;51.76;100383.50;5551186;32;33960;-71
2023/06/19 07:53:16;;;;;;;19.40;6.18;;;;;;;27.39;53.58;100381.31;5580272;31;33624;-69
2023/06/19 07:56:19;;;;;;;19.10;6.30;;;;;;;28.70;50.51;100381.59;5575653;31;32645;-70
2023/06/19 07:59:22;;;;;;;11.20;5.62;;;;;;;28.35;48.33;100375.31;5583792;31;33756;-71
2023/06/19 08:02:27;;;;;;;14.13;5.00;;;;;;;28.51;47.48;100373.28;5585273;31;33544;-72
2023/06/19 08:05:31;;;;;;;21.15;6.00;;;;;;;29.83;45.18;100369.88;5584625;31;33951;-70
2023/06/19 08:08:36;;;;;;;14.05;6.35;;;;;;;30.75;42.93;100377.50;5570344;31;33901;-71
2023/06/19 08:11:39;;;;;;;16.08;5.53;;;;;;;30.97;42.84;100372.97;5568807;31;33669;-71
2023/06/19 08:14:43;;;;;;;7.22;5.10;;;;;;;31.28;42.19;100372.37;5568919;31;33939;-71
2023/06/19 08:17:48;;;;;;;6.25;4.97;;;;;;;29.78;43.71;100372.69;5583226;31;33628;-70
2023/06/19 08:20:53;;;;;;;11.75;5.22;;;;;;;32.20;39.62;100370.09;5583350;31;33565;-70
2023/06/19 08:23:57;;;;;;;14.73;4.57;;;;;;;32.23;38.08;100371.44;5570550;31;33981;-72
2023/06/19 08:27:01;;;;;;;10.88;4.37;;;;;;;32.59;37.85;100363.09;5584263;31;33766;-71
2023/06/19 08:30:07;;;;;;;8.45;4.40;;;;;;;32.90;37.29;100366.69;5584625;31;33983;-70
2023/06/19 08:33:12;;;;;;;8.88;4.57;;;;;;;31.13;40.38;100369.97;5584335;31;34538;-71
2023/06/19 08:36:17;;;;;;;5.68;4.40;;;;;;;30.15;42.68;100371.91;5583651;31;34886;-71
2023/06/19 08:39:22;;;;;;;11.23;4.12;;;;;;;31.21;39.81;100370.06;5587129;31;34325;-70
2023/06/19 08:42:25;;;;;;;8.45;4.35;;;;;;;32.50;38.28;100368.53;5587367;31;33243;-72
2023/06/19 08:45:29;;;;;;;12.63;4.95;;;;;;;32.91;36.95;100367.50;5571871;31;33878;-71
2023/06/19 08:48:37;;;;;;;11.07;4.40;;;;;;;32.41;38.36;100367.66;5566454;31;33831;-71
2023/06/19 08:51:41;;;;;;;9.83;4.33;;;;;;;33.14;36.86;100369.03;5583053;31;33542;-70
2023/06/19 08:54:46;;;;;;;7.30;4.47;;;;;;;32.12;37.69;100365.38;5574754;31;32274;-72
2023/06/19 08:57:51;;;;;;;61.03;6.45;;;;;;;31.01;40.30;100359.47;5580753;31;33973;-71
2023/06/19 09:00:59;;;;;;;10.32;4.10;;;;;;;32.69;38.91;100357.34;5582211;31;33989;-71
2023/06/19 09:04:11;;;;;;;5.28;3.90;;;;;;;33.48;36.19;100358.19;5584770;31;33895;-72
2023/06/19 09:07:15;;;;;;;8.43;3.83;;;;;;;34.21;35.25;100361.19;5584895;31;33705;-72
2023/06/19 09:10:18;;;;;;;9.85;4.25;;;;;;;34.74;33.22;100364.34;5584034;31;33838;-71
2023/06/19 09:13:24;;;;;;;5.05;4.25;;;;;;;33.29;35.06;100352.16;5575907;31;33183;-71
2023/06/19 09:16:41;;;;;;;7.30;4.12;;;;;;;34.71;31.76;100353.19;5574049;31;34755;-74
2023/06/19 09:19:55;;;;;;;6.37;4.00;;;;;;;34.87;31.17;100359.75;5585698;31;34224;-71
2023/06/19 09:23:00;;;;;;;7.40;3.87;;;;;;;35.10;32.05;100354.81;5581372;31;33850;-71
2023/06/19 09:26:05;;;;;;;5.75;3.87;;;;;;;35.44;32.40;100345.56;5587276;31;33729;-71
2023/06/19 09:29:19;;;;;;;13.73;4.05;;;;;;;35.10;32.29;100363.06;5576748;31;33760;-70
2023/06/19 09:32:28;;;;;;;10.63;3.70;;;;;;;35.87;30.46;100359.06;5581962;31;34094;-70
2023/06/19 09:35:31;;;;;;;8.13;3.83;;;;;;;35.44;29.01;100342.78;5580837;31;33777;-70
2023/06/19 09:38:40;;;;;;;14.02;3.60;;;;;;;33.84;30.69;100346.91;5566553;32;34456;-67
2023/06/19 09:41:46;;;;;;;;;;;;;;;34.71;29.32;100336.63;5578283;31;34149;-70
2023/06/19 09:44:55;;;;;;;15.57;3.85;;;;;;;35.84;27.55;100348.69;5589385;31;34163;-70
2023/06/19 09:48:00;;;;;;;78.57;6.72;;;;;;;36.26;28.83;100338.44;5577375;31;33756;-71
2023/06/19 09:51:19;;;;;;;7.00;3.62;;;;;;;37.11;28.36;100338.63;5586353;31;34352;-71
2023/06/19 09:54:26;;;;;;;;;;;;;;;36.85;27.56;100341.69;5586790;31;33449;-71
2023/06/19 09:57:35;;;;;;;6.25;3.95;;;;;;;37.26;26.58;100335.97;5585891;31;33912;-70
2023/06/19 10:00:42;;;;;;;10.15;3.72;;;;;;;36.80;27.70;100330.84;5586572;31;35151;-70
2023/06/19 10:03:46;;;;;;;6.70;3.65;;;;;;;35.54;29.15;100321.09;5587680;31;33938;-71
2023/06/19 10:06:51;;;;;;;7.75;3.75;;;;;;;36.59;26.90;100326.19;5572429;31;34322;-72
2023/06/19 10:09:59;;;;;;;9.00;3.92;;;;;;;36.73;27.01;100314.03;5586329;31;33852;-71
2023/06/19 10:13:14;;;;;;;10.10;4.55;;;;;;;37.59;27.07;100313.66;5571248;31;34286;-70
2023/06/19 10:16:23;;;;;;;9.10;4.30;;;;;;;38.37;25.32;100304.00;5574700;31;33744;-72
2023/06/19 10:19:33;;;;;;;4.90;3.30;;;;;;;39.41;24.78;100309.81;5575327;31;33560;-70
2023/06/19 10:22:37;;;;;;;16.75;3.75;;;;;;;40.20;24.12;100310.31;5574874;31;33568;-71
2023/06/19 10:25:43;;;;;;;5.65;3.75;;;;;;;38.18;25.96;100305.50;5574323;31;34643;-70
2023/06/19 10:28:49;;;;;;;7.35;3.95;;;;;;;37.85;26.85;100305.75;5585427;31;33770;-72
2023/06/19 10:31:53;;;;;;;5.07;3.97;;;;;;;39.11;24.17;100301.19;5578882;31;34095;-71
2023/06/19 10:34:57;;;;;;;9.20;3.97;;;;;;;37.85;27.03;100300.22;5574632;31;34022;-70
2023/06/19 10:38:01;;;;;;;9.88;4.50;;;;;;;37.34;27.03;100296.28;5576595;31;33859;-72
2023/06/19 10:41:05;;;;;;;8.95;3.72;;;;;;;39.19;24.99;100295.78;5567313;31;33681;-71
2023/06/19 10:44:12;;;;;;;7.32;4.62;;;;;;;40.69;23.11;100290.94;5567702;31;34597;-72
2023/06/19 10:47:16;;;;;;;9.98;4.85;;;;;;;40.71;23.38;100294.16;5577513;31;32636;-72
2023/06/19 10:50:19;;;;;;;9.38;4.22;;;;;;;40.98;22.53;100294.16;5584268;31;33969;-71
2023/06/19 10:53:26;;;;;;;7.30;4.00;;;;;;;40.83;23.00;100287.56;5574529;31;33896;-71
2023/06/19 10:56:29;;;;;;;7.37;3.77;;;;;;;41.63;22.85;100287.19;5576892;31;33896;-72
2023/06/19 10:59:34;;;;;;;8.85;4.15;;;;;;;41.28;22.06;100289.47;5576464;31;33938;-71
2023/06/19 11:02:43;;;;;;;7.43;3.70;;;;;;;39.65;24.33;100278.19;5578455;31;34978;-71
2023/06/19 11:05:48;;;;;;;5.70;3.85;;;;;;;41.96;21.24;100292.00;5576175;31;34675;-70
2023/06/19 11:08:52;;;;;;;10.45;4.05;;;;;;;41.38;22.39;100286.03;5575999;31;34539;-71
2023/06/19 11:11:57;;;;;;;8.27;4.22;;;;;;;40.15;22.95;100282.78;5573475;31;34040;-70
2023/06/19 11:15:03;;;;;;;7.45;4.20;;;;;;;39.09;24.42;100277.72;5574948;31;33896;-69
2023/06/19 11:18:06;;;;;;;5.87;4.00;;;;;;;40.81;23.39;100285.16;5570934;31;33708;-72
2023/06/19 11:21:10;;;;;;;8.43;3.95;;;;;;;41.79;21.15;100275.03;5570793;31;33898;-71
2023/06/19 11:24:15;;;;;;;11.30;5.47;;;;;;;39.99;23.41;100275.72;5579169;31;34787;-71
2023/06/19 11:27:27;;;;;;;9.48;3.97;;;;;;;37.33;27.16;100263.41;5583030;31;34196;-71
2023/06/19 11:30:33;;;;;;;7.32;4.10;;;;;;;37.53;26.84;100261.63;5583741;31;33595;-72
2023/06/19 11:33:37;;;;;;;5.40;4.10;;;;;;;39.68;24.04;100260.81;5581371;31;33942;-71
2023/06/19 11:36:42;;;;;;;7.18;4.10;;;;;;;40.83;23.55;100267.31;5585537;31;34827;-70
2023/06/19 11:39:46;;;;;;;9.48;3.70;;;;;;;42.40;21.71;100263.38;5585147;31;33862;-72
2023/06/19 11:42:53;;;;;;;5.22;3.90;;;;;;;42.03;20.87;100264.19;5586006;31;33536;-70
2023/06/19 11:46:07;;;;;;;6.47;4.03;;;;;;;41.69;21.77;100250.63;5584780;31;33552;-71
2023/06/19 11:49:18;;;;;;;6.03;3.80;;;;;;;41.35;21.02;100255.34;5584206;31;33768;-72
2023/06/19 11:52:22;;;;;;;10.27;4.30;;;;;;;38.77;24.39;100249.22;5568750;31;34776;-72
2023/06/19 11:55:26;;;;;;;9.65;3.78;;;;;;;38.31;25.96;100241.69;5564808;32;34404;-71
2023/06/19 11:58:29;;;;;;;8.43;3.85;;;;;;;39.35;23.87;100241.06;5565755;32;33730;-72
2023/06/19 12:01:34;;;;;;;13.18;4.30;;;;;;;40.00;23.51;100247.56;5568180;31;34504;-73
2023/06/19 12:04:37;;;;;;;10.38;4.03;;;;;;;41.47;23.05;100242.03;5582410;31;33738;-71
2023/06/19 12:07:41;;;;;;;5.62;3.80;;;;;;;44.45;19.16;100250.44;5582709;31;34392;-71
2023/06/19 12:10:44;;;;;;;6.15;3.65;;;;;;;43.63;19.54;100252.25;5583262;31;34133;-71
2023/06/19 12:13:47;;;;;;;4.50;3.80;;;;;;;40.42;22.42;100241.19;5588018;31;33788;-70
2023/06/19 12:16:51;;;;;;;7.95;3.78;;;;;;;42.90;20.44;100237.47;5581963;31;33890;-71
2023/06/19 12:19:54;;;;;;;8.20;3.90;;;;;;;44.86;18.59;100241.63;5583997;31;34571;-72
2023/06/19 12:22:59;;;;;;;6.78;4.00;;;;;;;45.28;17.69;100235.94;5587579;31;34429;-72
2023/06/19 12:26:03;;;;;;;7.68;4.00;;;;;;;45.32;17.81;100230.31;5586870;31;33803;-71
2023/06/19 12:29:07;;;;;;;6.18;4.03;;;;;;;43.07;19.54;100226.81;5570086;31;33890;-71
2023/06/19 12:32:11;;;;;;;8.35;4.05;;;;;;;43.50;19.64;100227.84;5567977;32;34149;-71
2023/06/19 12:35:15;;;;;;;7.65;3.80;;;;;;;45.25;17.80;100219.94;5567899;32;33687;-69
2023/06/19 12:38:21;;;;;;;6.75;4.50;;;;;;;44.55;18.24;100221.66;5568049;32;33711;-69
2023/06/19 12:41:25;;;;;;;7.50;4.47;;;;;;;45.06;17.62;100217.63;5586536;31;34507;-69
2023/06/19 12:44:29;;;;;;;9.73;4.12;;;;;;;42.96;19.99;100204.41;5573111;31;34459;-69
2023/06/19 12:47:36;;;;;;;7.10;4.30;;;;;;;42.12;21.39;100210.13;5567688;32;33860;-69
2023/06/19 12:50:40;;;;;;;6.35;4.00;;;;;;;41.93;19.93;100200.75;5567505;31;34056;-69
2023/06/19 12:53:43;;;;;;;9.68;4.25;;;;;;;45.28;18.14;100205.12;5582545;31;33747;-69
2023/06/19 12:56:48;;;;;;;7.90;4.12;;;;;;;42.99;19.48;100202.84;5577664;31;33826;-69
2023/06/19 12:59:54;;;;;;;7.35;3.78;;;;;;;43.39;18.73;100194.25;5578678;31;34523;-68
2023/06/19 13:02:57;;;;;;;6.57;3.95;;;;;;;43.53;19.49;100194.34;5587263;31;34190;-67
2023/06/19 13:06:02;;;;;;;13.60;4.05;;;;;;;42.68;20.35;100187.50;5587042;31;34772;-69
2023/06/19 13:09:07;;;;;;;7.18;4.22;;;;;;;42.71;20.58;100186.72;5584747;31;34034;-68
2023/06/19 13:12:11;;;;;;;8.55;4.28;;;;;;;43.05;20.24;100190.91;5580219;31;33989;-68
2023/06/19 13:15:14;;;;;;;25.35;4.87;;;;;;;45.77;17.74;100187.25;5587708;31;33864;-68
2023/06/19 13:18:19;;;;;;;13.27;4.90;;;;;;;44.52;18.05;100186.09;5583051;31;33983;-68
2023/06/19 13:21:23;;;;;;;8.10;4.40;;;;;;;41.19;21.03;100181.19;5584779;31;34005;-68
2023/06/19 13:24:28;;;;;;;9.43;4.32;;;;;;;38.36;25.04;100167.41;5586166;31;33539;-67
2023/06/19 13:27:32;;;;;;;7.53;4.50;;;;;;;36.48;25.96;100159.22;5577029;31;34950;-68
2023/06/19 13:30:38;;;;;;;7.62;4.30;;;;;;;35.45;27.36;100162.28;5586472;31;34008;-68
2023/06/19 13:33:43;;;;;;;8.45;5.10;;;;;;;33.70;29.76;100161.09;5586186;31;34305;-68
2023/06/19 13:36:48;;;;;;;19.92;4.93;;;;;;;33.16;30.81;100155.91;5586373;31;34759;-67
2023/06/19 13:39:53;;;;;;;9.73;4.43;;;;;;;33.08;30.91;100156.72;5582106;31;33910;-68
2023/06/19 13:42:59;;;;;;;14.93;4.60;;;;;;;32.75;30.92;100161.03;5585797;31;33827;-68
2023/06/19 13:46:05;;;;;;;22.45;4.93;;;;;;;34.06;30.73;100169.75;5586609;31;34352;-68
2023/06/19 13:49:13;;;;;;;9.45;5.25;;;;;;;33.89;30.13;100159.56;5585132;31;35184;-68
2023/06/19 13:52:17;;;;;;;8.73;5.03;;;;;;;32.66;32.02;100154.72;5585259;31;33639;-69
2023/06/19 13:55:23;;;;;;;5.85;5.00;;;;;;;32.28;32.52;100159.91;5574489;31;33909;-69
2023/06/19 13:58:28;;;;;;;7.57;5.45;;;;;;;31.68;34.44;100160.38;5566978;32;33713;-68
2023/06/19 14:01:33;;;;;;;13.95;5.22;;;;;;;31.61;33.91;100154.53;5585664;31;34801;-69
2023/06/19 14:04:38;;;;;;;9.55;5.10;;;;;;;31.63;33.95;100155.00;5585674;31;33945;-69
2023/06/19 14:07:42;;;;;;;8.32;5.10;;;;;;;32.51;34.33;100155.13;5585639;31;34599;-69
2023/06/19 14:10:48;;;;;;;8.77;4.82;;;;;;;35.27;29.18;100158.87;5584268;31;34380;-69
2023/06/19 14:13:52;;;;;;;7.55;5.03;;;;;;;38.78;23.84;100164.06;5584988;31;35264;-69
2023/06/19 14:16:57;;;;;;;17.08;4.87;;;;;;;40.24;23.28;100154.69;5583565;31;33745;-69